createdAt,value
2023-01-20T17:21:54.745Z,3.90
2023-01-20T17:24:21.554Z,4.32
2023-01-20T17:26:48.329Z,3.83
2023-01-20T17:29:15.202Z,3.50
2023-01-20T17:31:43.078Z,3.55
2023-01-20T17:34:11.308Z,3.78
2023-01-20T17:36:38.895Z,3.50
2023-01-20T17:39:07.129Z,2.75
2023-01-20T17:41:34.504Z,3.22
2023-01-20T17:44:01.569Z,3.10
2023-01-20T17:46:30.295Z,3.20
2023-01-20T17:48:59.090Z,3.13
2023-01-20T17:51:28.315Z,3.60
2023-01-20T17:53:56.985Z,2.90
2023-01-20T17:56:23.832Z,3.50
2023-01-20T17:58:51.278Z,3.63
2023-01-20T18:01:26.526Z,3.20
2023-01-20T18:03:55.982Z,3.38
2023-01-20T18:06:24.286Z,2.88
2023-01-20T18:08:56.753Z,2.50
2023-01-20T18:11:25.092Z,2.38
2023-01-20T18:13:55.347Z,2.38
2023-01-20T18:16:24.827Z,2.75
2023-01-20T18:18:51.663Z,2.60
2023-01-20T18:21:23.439Z,2.80
2023-01-20T18:23:51.244Z,2.97
2023-01-20T18:26:21.461Z,3.08
2023-01-20T18:28:49.083Z,2.90
2023-01-20T18:31:18.989Z,2.80
2023-01-20T18:33:48.316Z,2.72
2023-01-20T18:36:18.290Z,3.00
2023-01-20T18:38:50.191Z,3.10
2023-01-20T18:41:17.218Z,3.22
2023-01-20T18:43:43.921Z,2.53
2023-01-20T18:46:10.893Z,3.45
2023-01-20T18:48:39.804Z,3.33
2023-01-20T18:51:08.584Z,3.30
2023-01-20T18:53:35.463Z,3.22
2023-01-20T18:56:08.698Z,3.17
2023-01-20T18:58:37.014Z,3.30
2023-01-20T19:01:03.796Z,3.10
2023-01-20T19:03:30.704Z,3.22
2023-01-20T19:06:04.514Z,3.40
2023-01-20T19:08:31.439Z,2.85
2023-01-20T19:11:01.862Z,3.25
2023-01-20T19:13:29.034Z,3.63
2023-01-20T19:15:56.250Z,3.08
2023-01-20T19:18:23.201Z,3.58
2023-01-20T19:20:50.706Z,3.63
2023-01-20T19:23:18.108Z,3.00
2023-01-20T19:25:45.120Z,3.00
2023-01-20T19:28:12.357Z,3.00
2023-01-20T19:30:39.065Z,2.92
2023-01-20T19:33:06.156Z,2.70
2023-01-20T19:35:34.039Z,2.67
2023-01-20T19:38:00.759Z,3.10
2023-01-20T19:40:27.513Z,2.33
2023-01-20T19:42:54.341Z,2.85
2023-01-20T19:45:21.113Z,2.72
2023-01-20T19:47:47.909Z,2.67
2023-01-20T19:50:15.193Z,2.30
2023-01-20T19:52:42.097Z,2.22
2023-01-20T19:55:10.359Z,2.20
2023-01-20T19:57:37.249Z,2.30
2023-01-20T20:00:05.172Z,2.70
2023-01-20T20:02:31.913Z,2.40
2023-01-20T20:04:58.799Z,2.83
2023-01-20T20:07:25.560Z,2.50
2023-01-20T20:09:52.323Z,2.35
2023-01-20T20:12:19.076Z,2.50
2023-01-20T20:14:45.909Z,2.60
2023-01-20T20:17:13.200Z,2.92
2023-01-20T20:19:40.042Z,2.35
2023-01-20T20:22:06.792Z,2.33
2023-01-20T20:24:33.526Z,2.70
2023-01-20T20:27:00.467Z,2.60
2023-01-20T20:29:28.075Z,2.40
2023-01-20T20:31:54.848Z,2.58
2023-01-20T20:34:21.650Z,2.67
2023-01-20T20:36:48.398Z,2.80
2023-01-20T20:39:17.723Z,2.58
2023-01-20T20:41:45.528Z,2.60
2023-01-20T20:44:12.423Z,2.88
2023-01-20T20:46:39.622Z,2.85
2023-01-20T20:49:06.389Z,2.67
2023-01-20T20:51:34.421Z,3.22
2023-01-20T20:54:03.214Z,3.00
2023-01-20T20:56:33.704Z,2.83
2023-01-20T20:59:03.074Z,3.50
2023-01-20T21:01:33.006Z,3.00
2023-01-20T21:04:00.786Z,3.35
2023-01-20T21:06:28.509Z,3.10
2023-01-20T21:08:55.358Z,3.10
2023-01-20T21:11:22.536Z,2.95
2023-01-20T21:13:49.654Z,2.83
2023-01-20T21:16:20.828Z,3.10
2023-01-20T21:18:48.181Z,3.05
2023-01-20T21:21:19.513Z,3.08
2023-01-20T21:26:17.400Z,2.28
2023-01-20T21:28:44.588Z,2.80
2023-01-20T21:31:16.857Z,2.85
2023-01-20T21:33:48.295Z,2.70
2023-01-20T21:38:46.623Z,2.75
2023-01-20T21:41:15.042Z,2.80
2023-01-20T21:44:02.553Z,3.05
2023-01-20T21:46:32.245Z,2.50
2023-01-20T21:49:18.017Z,2.58
2023-01-20T21:52:03.886Z,2.53
2023-01-20T21:54:32.414Z,2.80
2023-01-20T21:57:00.241Z,2.30
2023-01-20T21:59:27.197Z,2.42
2023-01-20T22:01:54.227Z,2.50
2023-01-20T22:04:21.064Z,2.30
2023-01-20T22:06:47.839Z,2.10
2023-01-20T22:09:14.825Z,1.90
2023-01-20T22:11:41.622Z,2.40
2023-01-20T22:14:10.120Z,2.25
2023-01-20T22:16:36.966Z,2.30
2023-01-20T22:19:03.781Z,2.05
2023-01-20T22:21:30.794Z,1.83
2023-01-20T22:23:57.568Z,1.88
2023-01-20T22:26:24.296Z,1.92
2023-01-20T22:28:51.014Z,2.15
2023-01-20T22:31:24.140Z,2.15
2023-01-20T22:33:55.096Z,1.90
2023-01-20T22:36:22.920Z,1.95
2023-01-20T22:38:51.285Z,1.80
2023-01-20T22:41:19.468Z,2.00
2023-01-20T22:43:48.116Z,2.28
2023-01-20T22:46:17.086Z,2.40
2023-01-20T22:48:44.769Z,2.42
2023-01-20T22:51:22.326Z,2.30
2023-01-20T22:53:49.703Z,2.30
2023-01-20T22:56:19.863Z,2.42
2023-01-20T22:58:47.051Z,2.30
2023-01-20T23:01:17.736Z,2.35
2023-01-20T23:03:45.552Z,2.20
2023-01-20T23:06:12.847Z,2.25
2023-01-20T23:08:39.957Z,2.28
2023-01-20T23:11:12.742Z,2.75
2023-01-20T23:13:40.487Z,2.22
2023-01-20T23:16:10.362Z,2.25
2023-01-20T23:18:37.195Z,2.08
2023-01-20T23:21:06.077Z,2.30
2023-01-20T23:23:33.589Z,2.33
2023-01-20T23:26:21.442Z,2.42
2023-01-20T23:28:50.481Z,2.60
2023-01-20T23:31:17.807Z,2.30
2023-01-20T23:33:45.122Z,2.53
2023-01-20T23:36:21.242Z,2.65
2023-01-20T23:38:48.127Z,3.10
2023-01-20T23:41:16.075Z,3.10
2023-01-20T23:43:42.856Z,3.00
2023-01-20T23:46:10.602Z,3.28
2023-01-20T23:48:37.793Z,3.35
2023-01-20T23:51:06.541Z,2.83
2023-01-20T23:53:37.072Z,2.53
2023-01-20T23:56:06.671Z,2.33
2023-01-20T23:58:33.429Z,2.88
